sensor_id;sensor_type;location;lat;lon;timestamp;temperature;humidity
31733;DHT22;18312;51.486;7.144;2023-07-29T00:00:37;18.60;99.90
31733;DHT22;18312;51.486;7.144;2023-07-29T00:03:05;18.50;99.90
31733;DHT22;18312;51.486;7.144;2023-07-29T00:05:32;18.50;99.90
31733;DHT22;18312;51.486;7.144;2023-07-29T00:07:58;18.50;99.90
31733;DHT22;18312;51.486;7.144;2023-07-29T00:10:25;18.50;99.90
31733;DHT22;18312;51.486;7.144;2023-07-29T00:12:52;18.50;99.90
31733;DHT22;18312;51.486;7.144;2023-07-29T00:15:19;18.50;99.90
31733;DHT22;18312;51.486;7.144;2023-07-29T00:17:45;18.40;99.90
31733;DHT22;18312;51.486;7.144;2023-07-29T00:20:14;18.40;99.90
31733;DHT22;18312;51.486;7.144;2023-07-29T00:22:41;18.40;99.90
31733;DHT22;18312;51.486;7.144;2023-07-29T00:25:08;18.40;99.90
31733;DHT22;18312;51.486;7.144;2023-07-29T00:27:34;18.30;99.90
31733;DHT22;18312;51.486;7.144;2023-07-29T00:30:01;18.30;99.90
31733;DHT22;18312;51.486;7.144;2023-07-29T00:32:29;18.30;99.90
31733;DHT22;18312;51.486;7.144;2023-07-29T00:34:56;18.40;99.90
31733;DHT22;18312;51.486;7.144;2023-07-29T00:37:24;18.30;99.90
31733;DHT22;18312;51.486;7.144;2023-07-29T00:39:51;18.40;99.90
31733;DHT22;18312;51.486;7.144;2023-07-29T00:42:17;18.40;99.90
31733;DHT22;18312;51.486;7.144;2023-07-29T00:44:44;18.40;99.90
31733;DHT22;18312;51.486;7.144;2023-07-29T00:47:11;18.40;99.90
31733;DHT22;18312;51.486;7.144;2023-07-29T00:49:40;18.40;99.90
31733;DHT22;18312;51.486;7.144;2023-07-29T00:52:07;18.40;99.90
31733;DHT22;18312;51.486;7.144;2023-07-29T00:54:39;18.30;99.90
31733;DHT22;18312;51.486;7.144;2023-07-29T00:57:06;18.30;99.90
31733;DHT22;18312;51.486;7.144;2023-07-29T00:59:35;18.40;99.90
31733;DHT22;18312;51.486;7.144;2023-07-29T01:02:02;18.40;99.90
31733;DHT22;18312;51.486;7.144;2023-07-29T01:04:29;18.50;99.90
31733;DHT22;18312;51.486;7.144;2023-07-29T01:07:06;18.40;99.90
31733;DHT22;18312;51.486;7.144;2023-07-29T01:09:38;18.40;99.90
31733;DHT22;18312;51.486;7.144;2023-07-29T01:12:12;18.40;99.90
31733;DHT22;18312;51.486;7.144;2023-07-29T01:14:48;18.40;99.90
31733;DHT22;18312;51.486;7.144;2023-07-29T01:17:23;18.30;99.90
31733;DHT22;18312;51.486;7.144;2023-07-29T01:19:59;18.30;99.90
31733;DHT22;18312;51.486;7.144;2023-07-29T01:22:27;18.30;99.90
31733;DHT22;18312;51.486;7.144;2023-07-29T01:24:57;18.20;99.90
31733;DHT22;18312;51.486;7.144;2023-07-29T01:27:24;18.20;99.90
31733;DHT22;18312;51.486;7.144;2023-07-29T01:29:50;18.20;99.90
31733;DHT22;18312;51.486;7.144;2023-07-29T01:32:23;18.10;99.90
31733;DHT22;18312;51.486;7.144;2023-07-29T01:35:08;18.10;99.90
31733;DHT22;18312;51.486;7.144;2023-07-29T01:37:37;18.20;99.90
31733;DHT22;18312;51.486;7.144;2023-07-29T01:40:09;18.10;99.90
31733;DHT22;18312;51.486;7.144;2023-07-29T01:42:36;18.20;99.90
31733;DHT22;18312;51.486;7.144;2023-07-29T01:45:04;18.30;99.90
31733;DHT22;18312;51.486;7.144;2023-07-29T01:47:31;18.30;99.90
31733;DHT22;18312;51.486;7.144;2023-07-29T01:49:58;18.30;99.90
31733;DHT22;18312;51.486;7.144;2023-07-29T01:52:25;18.30;99.90
31733;DHT22;18312;51.486;7.144;2023-07-29T01:54:51;18.20;99.90
31733;DHT22;18312;51.486;7.144;2023-07-29T01:57:20;18.20;99.90
31733;DHT22;18312;51.486;7.144;2023-07-29T01:59:46;18.30;99.90
31733;DHT22;18312;51.486;7.144;2023-07-29T02:02:13;18.30;99.90
31733;DHT22;18312;51.486;7.144;2023-07-29T02:04:40;18.30;99.90
31733;DHT22;18312;51.486;7.144;2023-07-29T02:07:06;18.40;99.90
31733;DHT22;18312;51.486;7.144;2023-07-29T02:09:33;18.40;99.90
31733;DHT22;18312;51.486;7.144;2023-07-29T02:12:00;18.40;99.90
31733;DHT22;18312;51.486;7.144;2023-07-29T02:14:28;18.50;99.90
31733;DHT22;18312;51.486;7.144;2023-07-29T02:16:55;18.50;99.90
31733;DHT22;18312;51.486;7.144;2023-07-29T02:19:22;18.50;99.90
31733;DHT22;18312;51.486;7.144;2023-07-29T02:21:49;18.50;99.90
31733;DHT22;18312;51.486;7.144;2023-07-29T02:24:15;18.60;99.90
31733;DHT22;18312;51.486;7.144;2023-07-29T02:26:42;18.50;99.90
31733;DHT22;18312;51.486;7.144;2023-07-29T02:29:09;18.50;99.90
31733;DHT22;18312;51.486;7.144;2023-07-29T02:31:37;18.50;99.90
31733;DHT22;18312;51.486;7.144;2023-07-29T02:34:04;18.50;99.90
31733;DHT22;18312;51.486;7.144;2023-07-29T02:36:30;18.50;99.90
31733;DHT22;18312;51.486;7.144;2023-07-29T02:38:57;18.50;99.90
31733;DHT22;18312;51.486;7.144;2023-07-29T02:41:24;18.50;99.90
31733;DHT22;18312;51.486;7.144;2023-07-29T02:43:51;18.50;99.90
31733;DHT22;18312;51.486;7.144;2023-07-29T02:46:18;18.50;99.90
31733;DHT22;18312;51.486;7.144;2023-07-29T02:48:46;18.50;99.90
31733;DHT22;18312;51.486;7.144;2023-07-29T02:51:12;18.50;99.90
31733;DHT22;18312;51.486;7.144;2023-07-29T02:53:39;18.50;99.90
31733;DHT22;18312;51.486;7.144;2023-07-29T02:56:06;18.40;99.90
31733;DHT22;18312;51.486;7.144;2023-07-29T02:58:35;18.50;99.90
31733;DHT22;18312;51.486;7.144;2023-07-29T03:01:02;18.50;99.90
31733;DHT22;18312;51.486;7.144;2023-07-29T03:03:29;18.50;99.90
31733;DHT22;18312;51.486;7.144;2023-07-29T03:06:02;18.40;99.90
31733;DHT22;18312;51.486;7.144;2023-07-29T03:08:29;18.50;99.90
31733;DHT22;18312;51.486;7.144;2023-07-29T03:10:57;18.50;99.90
31733;DHT22;18312;51.486;7.144;2023-07-29T03:13:24;18.50;99.90
31733;DHT22;18312;51.486;7.144;2023-07-29T03:15:51;18.50;99.90
31733;DHT22;18312;51.486;7.144;2023-07-29T03:18:18;18.50;99.90
31733;DHT22;18312;51.486;7.144;2023-07-29T03:20:44;18.50;99.90
31733;DHT22;18312;51.486;7.144;2023-07-29T03:23:12;18.60;99.90
31733;DHT22;18312;51.486;7.144;2023-07-29T03:25:39;18.50;99.90
31733;DHT22;18312;51.486;7.144;2023-07-29T03:28:06;18.60;99.90
31733;DHT22;18312;51.486;7.144;2023-07-29T03:30:32;18.60;99.90
31733;DHT22;18312;51.486;7.144;2023-07-29T03:32:59;18.70;99.90
31733;DHT22;18312;51.486;7.144;2023-07-29T03:35:26;18.70;99.90
31733;DHT22;18312;51.486;7.144;2023-07-29T03:37:53;18.70;99.90
31733;DHT22;18312;51.486;7.144;2023-07-29T03:40:21;18.70;99.90
31733;DHT22;18312;51.486;7.144;2023-07-29T03:42:47;18.70;99.90
31733;DHT22;18312;51.486;7.144;2023-07-29T03:45:15;18.70;99.90
31733;DHT22;18312;51.486;7.144;2023-07-29T03:47:41;18.70;99.90
31733;DHT22;18312;51.486;7.144;2023-07-29T03:50:08;18.70;99.90
31733;DHT22;18312;51.486;7.144;2023-07-29T03:52:35;18.70;99.90
31733;DHT22;18312;51.486;7.144;2023-07-29T03:55:02;18.70;99.90
31733;DHT22;18312;51.486;7.144;2023-07-29T03:57:30;18.70;99.90
31733;DHT22;18312;51.486;7.144;2023-07-29T03:59:57;18.80;99.90
31733;DHT22;18312;51.486;7.144;2023-07-29T04:02:24;18.70;99.90
31733;DHT22;18312;51.486;7.144;2023-07-29T04:04:50;18.80;99.90
31733;DHT22;18312;51.486;7.144;2023-07-29T04:07:17;18.80;99.90
31733;DHT22;18312;51.486;7.144;2023-07-29T04:09:44;18.70;99.90
31733;DHT22;18312;51.486;7.144;2023-07-29T04:12:11;18.70;99.90
31733;DHT22;18312;51.486;7.144;2023-07-29T04:14:39;18.80;99.90
31733;DHT22;18312;51.486;7.144;2023-07-29T04:17:06;18.80;99.90
31733;DHT22;18312;51.486;7.144;2023-07-29T04:19:33;18.70;99.90
31733;DHT22;18312;51.486;7.144;2023-07-29T04:22:00;18.80;99.90
31733;DHT22;18312;51.486;7.144;2023-07-29T04:24:26;18.70;99.90
31733;DHT22;18312;51.486;7.144;2023-07-29T04:26:53;18.70;99.90
31733;DHT22;18312;51.486;7.144;2023-07-29T04:29:20;18.70;99.90
31733;DHT22;18312;51.486;7.144;2023-07-29T04:31:49;18.80;99.90
31733;DHT22;18312;51.486;7.144;2023-07-29T04:34:16;18.80;99.90
31733;DHT22;18312;51.486;7.144;2023-07-29T04:36:43;18.80;99.90
31733;DHT22;18312;51.486;7.144;2023-07-29T04:39:10;18.80;99.90
31733;DHT22;18312;51.486;7.144;2023-07-29T04:41:36;18.80;99.90
31733;DHT22;18312;51.486;7.144;2023-07-29T04:44:03;18.80;99.90
31733;DHT22;18312;51.486;7.144;2023-07-29T04:46:30;18.80;99.90
31733;DHT22;18312;51.486;7.144;2023-07-29T04:48:58;18.80;99.90
31733;DHT22;18312;51.486;7.144;2023-07-29T04:51:25;18.80;99.90
31733;DHT22;18312;51.486;7.144;2023-07-29T04:53:52;18.80;99.90
31733;DHT22;18312;51.486;7.144;2023-07-29T04:56:18;18.80;99.90
31733;DHT22;18312;51.486;7.144;2023-07-29T04:58:45;18.80;99.90
31733;DHT22;18312;51.486;7.144;2023-07-29T05:01:12;18.80;99.90
31733;DHT22;18312;51.486;7.144;2023-07-29T05:03:39;18.80;99.90
31733;DHT22;18312;51.486;7.144;2023-07-29T05:06:07;18.90;99.90
31733;DHT22;18312;51.486;7.144;2023-07-29T05:08:34;18.80;99.90
31733;DHT22;18312;51.486;7.144;2023-07-29T05:11:01;18.80;99.90
31733;DHT22;18312;51.486;7.144;2023-07-29T05:13:27;18.80;99.90
31733;DHT22;18312;51.486;7.144;2023-07-29T05:15:54;18.70;99.90
31733;DHT22;18312;51.486;7.144;2023-07-29T05:18:21;18.80;99.90
31733;DHT22;18312;51.486;7.144;2023-07-29T05:20:48;18.80;99.90
31733;DHT22;18312;51.486;7.144;2023-07-29T05:23:16;18.80;99.90
31733;DHT22;18312;51.486;7.144;2023-07-29T05:25:43;18.90;99.90
31733;DHT22;18312;51.486;7.144;2023-07-29T05:28:10;19.00;99.90
31733;DHT22;18312;51.486;7.144;2023-07-29T05:30:36;19.10;99.90
31733;DHT22;18312;51.486;7.144;2023-07-29T05:33:05;19.20;99.90
31733;DHT22;18312;51.486;7.144;2023-07-29T05:35:33;19.20;99.90
31733;DHT22;18312;51.486;7.144;2023-07-29T05:38:00;19.20;99.90
31733;DHT22;18312;51.486;7.144;2023-07-29T05:40:28;19.30;99.90
31733;DHT22;18312;51.486;7.144;2023-07-29T05:42:54;19.30;99.90
31733;DHT22;18312;51.486;7.144;2023-07-29T05:45:21;19.30;99.90
31733;DHT22;18312;51.486;7.144;2023-07-29T05:47:48;19.30;99.90
31733;DHT22;18312;51.486;7.144;2023-07-29T05:50:15;19.20;99.90
31733;DHT22;18312;51.486;7.144;2023-07-29T05:52:42;19.20;99.90
31733;DHT22;18312;51.486;7.144;2023-07-29T05:55:09;19.20;99.90
31733;DHT22;18312;51.486;7.144;2023-07-29T05:57:37;19.10;99.90
31733;DHT22;18312;51.486;7.144;2023-07-29T06:00:04;19.10;99.90
31733;DHT22;18312;51.486;7.144;2023-07-29T06:02:31;19.00;99.90
31733;DHT22;18312;51.486;7.144;2023-07-29T06:04:58;19.00;99.90
31733;DHT22;18312;51.486;7.144;2023-07-29T06:07:25;19.00;99.90
31733;DHT22;18312;51.486;7.144;2023-07-29T06:09:55;19.10;99.90
31733;DHT22;18312;51.486;7.144;2023-07-29T06:12:23;18.90;99.90
31733;DHT22;18312;51.486;7.144;2023-07-29T06:14:51;18.80;99.90
31733;DHT22;18312;51.486;7.144;2023-07-29T06:17:18;18.80;99.90
31733;DHT22;18312;51.486;7.144;2023-07-29T06:19:44;18.80;99.90
31733;DHT22;18312;51.486;7.144;2023-07-29T06:22:11;18.80;99.90
31733;DHT22;18312;51.486;7.144;2023-07-29T06:24:38;18.80;99.90
31733;DHT22;18312;51.486;7.144;2023-07-29T06:27:05;18.90;99.90
31733;DHT22;18312;51.486;7.144;2023-07-29T06:29:32;19.00;99.90
31733;DHT22;18312;51.486;7.144;2023-07-29T06:32:00;19.10;99.90
31733;DHT22;18312;51.486;7.144;2023-07-29T06:34:27;19.00;99.90
31733;DHT22;18312;51.486;7.144;2023-07-29T06:36:53;19.10;99.90
31733;DHT22;18312;51.486;7.144;2023-07-29T06:39:20;19.20;99.90
31733;DHT22;18312;51.486;7.144;2023-07-29T06:41:47;19.10;99.90
31733;DHT22;18312;51.486;7.144;2023-07-29T06:44:13;19.10;99.90
31733;DHT22;18312;51.486;7.144;2023-07-29T06:46:40;19.20;99.90
31733;DHT22;18312;51.486;7.144;2023-07-29T06:49:08;19.20;99.90
31733;DHT22;18312;51.486;7.144;2023-07-29T06:51:35;19.10;99.90
31733;DHT22;18312;51.486;7.144;2023-07-29T06:54:02;19.20;99.90
31733;DHT22;18312;51.486;7.144;2023-07-29T06:56:29;19.10;99.90
31733;DHT22;18312;51.486;7.144;2023-07-29T06:58:56;19.20;99.90
31733;DHT22;18312;51.486;7.144;2023-07-29T07:01:22;19.20;99.90
31733;DHT22;18312;51.486;7.144;2023-07-29T07:03:49;19.20;99.90
31733;DHT22;18312;51.486;7.144;2023-07-29T07:06:21;19.40;99.90
31733;DHT22;18312;51.486;7.144;2023-07-29T07:08:49;19.50;99.90
31733;DHT22;18312;51.486;7.144;2023-07-29T07:11:17;19.40;99.90
31733;DHT22;18312;51.486;7.144;2023-07-29T07:13:44;19.40;99.90
31733;DHT22;18312;51.486;7.144;2023-07-29T07:16:11;19.50;99.90
31733;DHT22;18312;51.486;7.144;2023-07-29T07:18:37;19.50;99.90
31733;DHT22;18312;51.486;7.144;2023-07-29T07:21:04;19.60;99.90
31733;DHT22;18312;51.486;7.144;2023-07-29T07:23:32;19.50;99.90
31733;DHT22;18312;51.486;7.144;2023-07-29T07:25:59;19.40;99.90
31733;DHT22;18312;51.486;7.144;2023-07-29T07:28:26;19.50;99.90
31733;DHT22;18312;51.486;7.144;2023-07-29T07:30:52;19.60;99.90
31733;DHT22;18312;51.486;7.144;2023-07-29T07:33:21;20.00;99.90
31733;DHT22;18312;51.486;7.144;2023-07-29T07:35:47;20.50;99.90
31733;DHT22;18312;51.486;7.144;2023-07-29T07:38:14;20.60;99.90
31733;DHT22;18312;51.486;7.144;2023-07-29T07:40:52;21.10;99.90
31733;DHT22;18312;51.486;7.144;2023-07-29T07:43:19;21.50;99.90
31733;DHT22;18312;51.486;7.144;2023-07-29T07:45:46;21.50;99.90
31733;DHT22;18312;51.486;7.144;2023-07-29T07:48:12;21.40;99.90
31733;DHT22;18312;51.486;7.144;2023-07-29T07:50:39;21.40;99.90
31733;DHT22;18312;51.486;7.144;2023-07-29T07:53:06;21.30;99.90
31733;DHT22;18312;51.486;7.144;2023-07-29T07:55:33;21.70;99.90
31733;DHT22;18312;51.486;7.144;2023-07-29T07:58:01;22.80;99.90
31733;DHT22;18312;51.486;7.144;2023-07-29T08:00:27;22.60;99.90
31733;DHT22;18312;51.486;7.144;2023-07-29T08:02:54;22.10;99.90
31733;DHT22;18312;51.486;7.144;2023-07-29T08:05:21;21.50;99.90
31733;DHT22;18312;51.486;7.144;2023-07-29T08:07:48;21.30;99.90
31733;DHT22;18312;51.486;7.144;2023-07-29T08:10:14;21.00;99.90
31733;DHT22;18312;51.486;7.144;2023-07-29T08:12:41;21.30;99.90
31733;DHT22;18312;51.486;7.144;2023-07-29T08:15:09;21.70;99.90
31733;DHT22;18312;51.486;7.144;2023-07-29T08:17:36;21.90;99.90
31733;DHT22;18312;51.486;7.144;2023-07-29T08:20:04;22.20;99.90
31733;DHT22;18312;51.486;7.144;2023-07-29T08:22:31;21.90;99.90
31733;DHT22;18312;51.486;7.144;2023-07-29T08:24:58;21.60;99.90
31733;DHT22;18312;51.486;7.144;2023-07-29T08:27:27;21.30;99.90
31733;DHT22;18312;51.486;7.144;2023-07-29T08:29:54;21.30;99.90
31733;DHT22;18312;51.486;7.144;2023-07-29T08:32:22;21.20;99.90
31733;DHT22;18312;51.486;7.144;2023-07-29T08:34:49;21.20;99.90
31733;DHT22;18312;51.486;7.144;2023-07-29T08:37:15;21.20;99.90
31733;DHT22;18312;51.486;7.144;2023-07-29T08:39:42;21.10;99.90
31733;DHT22;18312;51.486;7.144;2023-07-29T08:42:11;21.00;99.90
31733;DHT22;18312;51.486;7.144;2023-07-29T08:44:41;21.00;99.90
31733;DHT22;18312;51.486;7.144;2023-07-29T08:47:08;21.10;99.90
31733;DHT22;18312;51.486;7.144;2023-07-29T08:49:37;21.30;99.90
31733;DHT22;18312;51.486;7.144;2023-07-29T08:52:05;21.30;99.90
31733;DHT22;18312;51.486;7.144;2023-07-29T08:54:33;21.70;99.90
31733;DHT22;18312;51.486;7.144;2023-07-29T08:57:00;22.00;99.90
31733;DHT22;18312;51.486;7.144;2023-07-29T08:59:28;23.10;99.90
31733;DHT22;18312;51.486;7.144;2023-07-29T09:01:56;23.50;99.90
31733;DHT22;18312;51.486;7.144;2023-07-29T09:04:23;24.70;99.90
31733;DHT22;18312;51.486;7.144;2023-07-29T09:06:52;23.70;99.90
31733;DHT22;18312;51.486;7.144;2023-07-29T09:09:21;23.00;99.90
31733;DHT22;18312;51.486;7.144;2023-07-29T09:11:47;22.70;99.90
31733;DHT22;18312;51.486;7.144;2023-07-29T09:14:15;22.50;99.90
31733;DHT22;18312;51.486;7.144;2023-07-29T09:16:41;22.50;99.90
31733;DHT22;18312;51.486;7.144;2023-07-29T09:19:09;22.70;99.90
31733;DHT22;18312;51.486;7.144;2023-07-29T09:21:39;22.90;99.90
31733;DHT22;18312;51.486;7.144;2023-07-29T09:24:07;22.90;99.90
31733;DHT22;18312;51.486;7.144;2023-07-29T09:26:35;22.80;99.90
31733;DHT22;18312;51.486;7.144;2023-07-29T09:29:02;22.80;99.90
31733;DHT22;18312;51.486;7.144;2023-07-29T09:31:29;22.70;99.90
31733;DHT22;18312;51.486;7.144;2023-07-29T09:33:56;22.40;99.90
31733;DHT22;18312;51.486;7.144;2023-07-29T09:36:24;22.90;99.90
31733;DHT22;18312;51.486;7.144;2023-07-29T09:38:53;23.20;99.90
31733;DHT22;18312;51.486;7.144;2023-07-29T09:41:24;23.20;99.90
31733;DHT22;18312;51.486;7.144;2023-07-29T09:43:56;24.20;99.90
31733;DHT22;18312;51.486;7.144;2023-07-29T09:46:24;25.90;99.90
31733;DHT22;18312;51.486;7.144;2023-07-29T09:48:53;25.90;99.90
31733;DHT22;18312;51.486;7.144;2023-07-29T09:51:21;25.30;99.90
31733;DHT22;18312;51.486;7.144;2023-07-29T09:53:50;24.80;99.90
31733;DHT22;18312;51.486;7.144;2023-07-29T09:56:17;23.90;99.90
31733;DHT22;18312;51.486;7.144;2023-07-29T09:58:46;23.30;99.90
31733;DHT22;18312;51.486;7.144;2023-07-29T10:01:14;23.20;99.90
31733;DHT22;18312;51.486;7.144;2023-07-29T10:03:42;22.90;99.90
31733;DHT22;18312;51.486;7.144;2023-07-29T10:06:10;23.00;99.90
31733;DHT22;18312;51.486;7.144;2023-07-29T10:08:39;23.10;99.90
31733;DHT22;18312;51.486;7.144;2023-07-29T10:11:08;22.50;99.90
31733;DHT22;18312;51.486;7.144;2023-07-29T10:13:35;22.40;99.90
31733;DHT22;18312;51.486;7.144;2023-07-29T10:16:04;23.00;99.90
31733;DHT22;18312;51.486;7.144;2023-07-29T10:18:32;22.80;99.90
31733;DHT22;18312;51.486;7.144;2023-07-29T10:20:59;22.90;99.90
31733;DHT22;18312;51.486;7.144;2023-07-29T10:23:28;22.80;99.90
31733;DHT22;18312;51.486;7.144;2023-07-29T10:26:02;23.10;99.90
31733;DHT22;18312;51.486;7.144;2023-07-29T10:28:30;23.70;99.90
31733;DHT22;18312;51.486;7.144;2023-07-29T10:30:58;24.10;99.90
31733;DHT22;18312;51.486;7.144;2023-07-29T10:33:26;24.20;99.90
31733;DHT22;18312;51.486;7.144;2023-07-29T10:35:53;24.20;99.90
31733;DHT22;18312;51.486;7.144;2023-07-29T10:38:22;24.60;99.90
31733;DHT22;18312;51.486;7.144;2023-07-29T10:40:51;24.50;99.90
31733;DHT22;18312;51.486;7.144;2023-07-29T10:43:25;24.50;99.90
31733;DHT22;18312;51.486;7.144;2023-07-29T10:45:53;24.70;99.90
31733;DHT22;18312;51.486;7.144;2023-07-29T10:48:41;24.90;99.90
31733;DHT22;18312;51.486;7.144;2023-07-29T10:51:29;24.70;99.90
31733;DHT22;18312;51.486;7.144;2023-07-29T10:53:58;24.80;99.90
31733;DHT22;18312;51.486;7.144;2023-07-29T10:56:27;24.50;99.90
31733;DHT22;18312;51.486;7.144;2023-07-29T10:58:55;24.30;99.90
31733;DHT22;18312;51.486;7.144;2023-07-29T11:01:30;24.10;99.90
31733;DHT22;18312;51.486;7.144;2023-07-29T11:04:27;24.10;99.90
31733;DHT22;18312;51.486;7.144;2023-07-29T11:07:20;23.90;99.90
31733;DHT22;18312;51.486;7.144;2023-07-29T11:09:58;24.20;99.90
31733;DHT22;18312;51.486;7.144;2023-07-29T11:12:42;24.60;99.90
31733;DHT22;18312;51.486;7.144;2023-07-29T11:15:21;24.70;99.90
31733;DHT22;18312;51.486;7.144;2023-07-29T11:17:49;25.00;99.90
31733;DHT22;18312;51.486;7.144;2023-07-29T11:20:19;24.90;99.90
31733;DHT22;18312;51.486;7.144;2023-07-29T11:22:48;25.20;99.90
31733;DHT22;18312;51.486;7.144;2023-07-29T11:25:16;25.50;99.90
31733;DHT22;18312;51.486;7.144;2023-07-29T11:27:42;25.30;99.90
31733;DHT22;18312;51.486;7.144;2023-07-29T11:30:10;25.50;99.90
31733;DHT22;18312;51.486;7.144;2023-07-29T11:32:38;25.80;99.90
31733;DHT22;18312;51.486;7.144;2023-07-29T11:35:07;25.80;99.90
31733;DHT22;18312;51.486;7.144;2023-07-29T11:37:37;25.50;99.90
31733;DHT22;18312;51.486;7.144;2023-07-29T11:40:07;25.50;99.90
31733;DHT22;18312;51.486;7.144;2023-07-29T11:42:36;25.60;99.90
31733;DHT22;18312;51.486;7.144;2023-07-29T11:45:03;25.90;99.90
31733;DHT22;18312;51.486;7.144;2023-07-29T11:47:32;25.50;99.90
31733;DHT22;18312;51.486;7.144;2023-07-29T11:50:03;25.10;99.90
31733;DHT22;18312;51.486;7.144;2023-07-29T11:52:31;25.20;99.90
31733;DHT22;18312;51.486;7.144;2023-07-29T11:55:00;25.20;99.90
31733;DHT22;18312;51.486;7.144;2023-07-29T11:57:28;25.30;99.90
31733;DHT22;18312;51.486;7.144;2023-07-29T11:59:55;25.60;99.90
31733;DHT22;18312;51.486;7.144;2023-07-29T12:02:23;25.20;99.90
31733;DHT22;18312;51.486;7.144;2023-07-29T12:04:51;24.70;99.90
31733;DHT22;18312;51.486;7.144;2023-07-29T12:07:22;25.20;99.90
31733;DHT22;18312;51.486;7.144;2023-07-29T12:09:49;25.50;99.90
31733;DHT22;18312;51.486;7.144;2023-07-29T12:12:18;25.50;99.90
31733;DHT22;18312;51.486;7.144;2023-07-29T12:14:45;25.40;99.90
31733;DHT22;18312;51.486;7.144;2023-07-29T12:17:13;25.90;99.90
31733;DHT22;18312;51.486;7.144;2023-07-29T12:19:42;25.80;99.90
31733;DHT22;18312;51.486;7.144;2023-07-29T12:22:10;26.20;99.90
31733;DHT22;18312;51.486;7.144;2023-07-29T12:24:39;26.20;99.90
31733;DHT22;18312;51.486;7.144;2023-07-29T12:27:11;26.10;99.90
31733;DHT22;18312;51.486;7.144;2023-07-29T12:29:43;26.00;99.90
31733;DHT22;18312;51.486;7.144;2023-07-29T12:32:12;25.90;99.90
31733;DHT22;18312;51.486;7.144;2023-07-29T12:34:39;25.60;99.90
31733;DHT22;18312;51.486;7.144;2023-07-29T12:37:06;25.30;99.90
31733;DHT22;18312;51.486;7.144;2023-07-29T12:39:35;25.50;99.90
31733;DHT22;18312;51.486;7.144;2023-07-29T12:42:03;25.40;99.90
31733;DHT22;18312;51.486;7.144;2023-07-29T12:44:32;25.70;99.90
31733;DHT22;18312;51.486;7.144;2023-07-29T12:47:01;26.20;99.90
31733;DHT22;18312;51.486;7.144;2023-07-29T12:49:29;26.40;99.90
31733;DHT22;18312;51.486;7.144;2023-07-29T12:51:56;26.00;99.90
31733;DHT22;18312;51.486;7.144;2023-07-29T12:54:23;25.80;99.90
31733;DHT22;18312;51.486;7.144;2023-07-29T12:56:51;26.10;99.90
31733;DHT22;18312;51.486;7.144;2023-07-29T12:59:17;26.70;99.90
31733;DHT22;18312;51.486;7.144;2023-07-29T13:01:44;26.00;99.70
31733;DHT22;18312;51.486;7.144;2023-07-29T13:04:13;25.60;99.90
31733;DHT22;18312;51.486;7.144;2023-07-29T13:06:40;25.40;99.90
31733;DHT22;18312;51.486;7.144;2023-07-29T13:09:07;25.40;99.90
31733;DHT22;18312;51.486;7.144;2023-07-29T13:11:33;25.80;99.90
31733;DHT22;18312;51.486;7.144;2023-07-29T13:14:00;25.60;99.90
31733;DHT22;18312;51.486;7.144;2023-07-29T13:16:27;25.20;99.90
31733;DHT22;18312;51.486;7.144;2023-07-29T13:18:54;25.30;99.90
31733;DHT22;18312;51.486;7.144;2023-07-29T13:21:22;25.30;99.90
31733;DHT22;18312;51.486;7.144;2023-07-29T13:23:49;25.40;99.90
31733;DHT22;18312;51.486;7.144;2023-07-29T13:26:16;25.10;99.90
31733;DHT22;18312;51.486;7.144;2023-07-29T13:28:43;25.20;99.90
31733;DHT22;18312;51.486;7.144;2023-07-29T13:31:10;25.10;99.90
31733;DHT22;18312;51.486;7.144;2023-07-29T13:33:37;25.10;99.90
31733;DHT22;18312;51.486;7.144;2023-07-29T13:36:04;25.00;99.90
31733;DHT22;18312;51.486;7.144;2023-07-29T13:38:35;25.10;99.90
31733;DHT22;18312;51.486;7.144;2023-07-29T13:41:02;24.80;99.90
31733;DHT22;18312;51.486;7.144;2023-07-29T13:43:29;24.40;99.90
31733;DHT22;18312;51.486;7.144;2023-07-29T13:45:55;24.40;99.90
31733;DHT22;18312;51.486;7.144;2023-07-29T13:48:22;24.30;99.90
31733;DHT22;18312;51.486;7.144;2023-07-29T13:50:49;24.10;99.90
31733;DHT22;18312;51.486;7.144;2023-07-29T13:53:16;23.90;99.90
31733;DHT22;18312;51.486;7.144;2023-07-29T13:55:45;23.70;99.90
31733;DHT22;18312;51.486;7.144;2023-07-29T13:58:11;23.50;99.90
31733;DHT22;18312;51.486;7.144;2023-07-29T14:00:38;23.50;99.90
31733;DHT22;18312;51.486;7.144;2023-07-29T14:03:05;23.30;99.90
31733;DHT22;18312;51.486;7.144;2023-07-29T14:05:32;23.10;99.90
31733;DHT22;18312;51.486;7.144;2023-07-29T14:08:02;23.10;99.90
31733;DHT22;18312;51.486;7.144;2023-07-29T14:10:29;22.90;99.90
31733;DHT22;18312;51.486;7.144;2023-07-29T14:12:57;22.70;99.90
31733;DHT22;18312;51.486;7.144;2023-07-29T14:15:25;22.20;99.90
31733;DHT22;18312;51.486;7.144;2023-07-29T14:17:54;22.00;99.90
31733;DHT22;18312;51.486;7.144;2023-07-29T14:20:21;21.00;99.90
31733;DHT22;18312;51.486;7.144;2023-07-29T14:22:48;20.20;99.90
31733;DHT22;18312;51.486;7.144;2023-07-29T14:25:16;19.70;99.90
31733;DHT22;18312;51.486;7.144;2023-07-29T14:27:43;19.20;99.90
31733;DHT22;18312;51.486;7.144;2023-07-29T14:30:11;18.90;99.90
31733;DHT22;18312;51.486;7.144;2023-07-29T14:32:38;18.50;99.90
31733;DHT22;18312;51.486;7.144;2023-07-29T14:35:06;18.10;99.90
31733;DHT22;18312;51.486;7.144;2023-07-29T14:37:33;18.20;99.90
31733;DHT22;18312;51.486;7.144;2023-07-29T14:40:01;18.10;99.90
31733;DHT22;18312;51.486;7.144;2023-07-29T14:42:28;17.90;99.90
31733;DHT22;18312;51.486;7.144;2023-07-29T14:44:55;17.80;99.90
31733;DHT22;18312;51.486;7.144;2023-07-29T14:47:23;18.10;99.90
31733;DHT22;18312;51.486;7.144;2023-07-29T14:49:50;18.80;99.90
31733;DHT22;18312;51.486;7.144;2023-07-29T14:52:17;19.60;99.90
31733;DHT22;18312;51.486;7.144;2023-07-29T14:54:44;20.00;99.90
31733;DHT22;18312;51.486;7.144;2023-07-29T14:57:10;20.30;99.90
31733;DHT22;18312;51.486;7.144;2023-07-29T14:59:37;21.00;99.90
31733;DHT22;18312;51.486;7.144;2023-07-29T15:02:05;21.40;99.90
31733;DHT22;18312;51.486;7.144;2023-07-29T15:04:33;21.90;99.90
31733;DHT22;18312;51.486;7.144;2023-07-29T15:07:02;22.30;99.90
31733;DHT22;18312;51.486;7.144;2023-07-29T15:09:30;22.00;99.90
31733;DHT22;18312;51.486;7.144;2023-07-29T15:11:57;21.10;99.90
31733;DHT22;18312;51.486;7.144;2023-07-29T15:14:24;20.80;99.90
31733;DHT22;18312;51.486;7.144;2023-07-29T15:16:51;20.70;99.90
31733;DHT22;18312;51.486;7.144;2023-07-29T15:19:17;20.60;99.90
31733;DHT22;18312;51.486;7.144;2023-07-29T15:21:46;20.70;99.90
31733;DHT22;18312;51.486;7.144;2023-07-29T15:24:13;20.60;99.90
31733;DHT22;18312;51.486;7.144;2023-07-29T15:26:40;20.40;99.90
31733;DHT22;18312;51.486;7.144;2023-07-29T15:29:07;20.10;99.90
31733;DHT22;18312;51.486;7.144;2023-07-29T15:31:34;20.10;99.90
31733;DHT22;18312;51.486;7.144;2023-07-29T15:34:00;20.30;99.90